sensor_id;sensor_type;location;lat;lon;timestamp;temperature;humidity
1602;DHT22;794;48.592;9.634;2023-03-08T00:01:10;4.10;1.00
1602;DHT22;794;48.592;9.634;2023-03-08T00:03:38;3.90;1.00
1602;DHT22;794;48.592;9.634;2023-03-08T00:06:06;3.70;1.00
1602;DHT22;794;48.592;9.634;2023-03-08T00:08:34;3.70;1.00
1602;DHT22;794;48.592;9.634;2023-03-08T00:11:04;4.40;1.00
1602;DHT22;794;48.592;9.634;2023-03-08T00:13:32;3.70;1.00
1602;DHT22;794;48.592;9.634;2023-03-08T00:16:00;3.90;1.00
1602;DHT22;794;48.592;9.634;2023-03-08T00:18:27;3.70;1.00
1602;DHT22;794;48.592;9.634;2023-03-08T00:20:58;3.90;1.00
1602;DHT22;794;48.592;9.634;2023-03-08T00:23:26;3.60;1.00
1602;DHT22;794;48.592;9.634;2023-03-08T00:25:53;3.90;1.00
1602;DHT22;794;48.592;9.634;2023-03-08T00:28:20;4.00;1.00
1602;DHT22;794;48.592;9.634;2023-03-08T00:30:55;3.90;1.00
1602;DHT22;794;48.592;9.634;2023-03-08T00:33:23;4.10;1.00
1602;DHT22;794;48.592;9.634;2023-03-08T00:35:57;4.40;1.00
1602;DHT22;794;48.592;9.634;2023-03-08T00:38:25;3.90;1.00
1602;DHT22;794;48.592;9.634;2023-03-08T00:40:53;3.70;1.00
1602;DHT22;794;48.592;9.634;2023-03-08T00:43:20;4.20;1.00
1602;DHT22;794;48.592;9.634;2023-03-08T00:45:47;3.70;1.00
1602;DHT22;794;48.592;9.634;2023-03-08T00:48:16;4.20;1.00
1602;DHT22;794;48.592;9.634;2023-03-08T00:50:43;4.90;1.00
1602;DHT22;794;48.592;9.634;2023-03-08T00:53:11;4.10;1.00
1602;DHT22;794;48.592;9.634;2023-03-08T00:55:38;3.80;1.00
1602;DHT22;794;48.592;9.634;2023-03-08T00:58:05;4.20;1.00
1602;DHT22;794;48.592;9.634;2023-03-08T01:00:32;4.00;1.00
1602;DHT22;794;48.592;9.634;2023-03-08T01:02:59;3.90;1.00
1602;DHT22;794;48.592;9.634;2023-03-08T01:05:27;3.80;1.00
1602;DHT22;794;48.592;9.634;2023-03-08T01:07:54;3.70;1.00
1602;DHT22;794;48.592;9.634;2023-03-08T01:10:21;3.90;1.00
1602;DHT22;794;48.592;9.634;2023-03-08T01:12:48;3.70;1.00
1602;DHT22;794;48.592;9.634;2023-03-08T01:15:15;3.90;1.00
1602;DHT22;794;48.592;9.634;2023-03-08T01:17:42;5.00;1.00
1602;DHT22;794;48.592;9.634;2023-03-08T01:20:10;3.80;1.00
1602;DHT22;794;48.592;9.634;2023-03-08T01:22:38;3.30;1.00
1602;DHT22;794;48.592;9.634;2023-03-08T01:25:06;3.90;1.00
1602;DHT22;794;48.592;9.634;2023-03-08T01:27:33;3.40;1.00
1602;DHT22;794;48.592;9.634;2023-03-08T01:30:00;4.60;1.00
1602;DHT22;794;48.592;9.634;2023-03-08T01:32:27;3.40;1.00
1602;DHT22;794;48.592;9.634;2023-03-08T01:34:54;3.60;1.00
1602;DHT22;794;48.592;9.634;2023-03-08T01:37:26;3.20;1.00
1602;DHT22;794;48.592;9.634;2023-03-08T01:39:55;4.50;1.00
1602;DHT22;794;48.592;9.634;2023-03-08T01:42:22;4.70;1.00
1602;DHT22;794;48.592;9.634;2023-03-08T01:44:54;3.30;1.00
1602;DHT22;794;48.592;9.634;2023-03-08T01:47:22;3.30;1.00
1602;DHT22;794;48.592;9.634;2023-03-08T01:49:51;3.10;1.00
1602;DHT22;794;48.592;9.634;2023-03-08T01:52:22;3.10;1.00
1602;DHT22;794;48.592;9.634;2023-03-08T01:54:54;3.00;1.00
1602;DHT22;794;48.592;9.634;2023-03-08T01:57:24;4.20;1.00
1602;DHT22;794;48.592;9.634;2023-03-08T01:59:55;2.80;1.00
1602;DHT22;794;48.592;9.634;2023-03-08T02:02:25;2.60;1.00
1602;DHT22;794;48.592;9.634;2023-03-08T02:04:53;4.20;1.00
1602;DHT22;794;48.592;9.634;2023-03-08T02:07:20;2.60;1.00
1602;DHT22;794;48.592;9.634;2023-03-08T02:09:47;2.50;1.00
1602;DHT22;794;48.592;9.634;2023-03-08T02:12:14;3.00;1.00
1602;DHT22;794;48.592;9.634;2023-03-08T02:14:43;2.70;1.00
1602;DHT22;794;48.592;9.634;2023-03-08T02:17:10;3.10;1.00
1602;DHT22;794;48.592;9.634;2023-03-08T02:19:42;2.30;1.00
1602;DHT22;794;48.592;9.634;2023-03-08T02:22:12;2.40;1.00
1602;DHT22;794;48.592;9.634;2023-03-08T02:24:41;2.70;1.00
1602;DHT22;794;48.592;9.634;2023-03-08T02:27:12;3.70;1.00
1602;DHT22;794;48.592;9.634;2023-03-08T02:29:40;2.20;1.00
1602;DHT22;794;48.592;9.634;2023-03-08T02:32:07;2.70;1.00
1602;DHT22;794;48.592;9.634;2023-03-08T02:34:34;2.10;1.00
1602;DHT22;794;48.592;9.634;2023-03-08T02:37:01;2.20;1.00
1602;DHT22;794;48.592;9.634;2023-03-08T02:39:28;2.80;1.00
1602;DHT22;794;48.592;9.634;2023-03-08T02:41:57;2.00;1.00
1602;DHT22;794;48.592;9.634;2023-03-08T02:44:24;2.00;1.00
1602;DHT22;794;48.592;9.634;2023-03-08T02:46:51;2.20;1.00
1602;DHT22;794;48.592;9.634;2023-03-08T02:49:18;4.20;1.00
1602;DHT22;794;48.592;9.634;2023-03-08T02:51:45;3.10;1.00
1602;DHT22;794;48.592;9.634;2023-03-08T02:54:12;2.30;1.00
1602;DHT22;794;48.592;9.634;2023-03-08T02:56:39;2.50;1.00
1602;DHT22;794;48.592;9.634;2023-03-08T02:59:08;4.20;1.00
1602;DHT22;794;48.592;9.634;2023-03-08T03:01:35;2.70;1.00
1602;DHT22;794;48.592;9.634;2023-03-08T03:04:03;3.30;1.00
1602;DHT22;794;48.592;9.634;2023-03-08T03:06:31;3.30;1.00
1602;DHT22;794;48.592;9.634;2023-03-08T03:08:58;2.90;1.00
1602;DHT22;794;48.592;9.634;2023-03-08T03:11:25;3.00;1.00
1602;DHT22;794;48.592;9.634;2023-03-08T03:13:54;3.30;1.00
1602;DHT22;794;48.592;9.634;2023-03-08T03:16:24;2.90;1.00
1602;DHT22;794;48.592;9.634;2023-03-08T03:18:52;3.20;1.00
1602;DHT22;794;48.592;9.634;2023-03-08T03:21:20;3.30;1.00
1602;DHT22;794;48.592;9.634;2023-03-08T03:23:47;3.10;1.00
1602;DHT22;794;48.592;9.634;2023-03-08T03:26:16;3.50;1.00
1602;DHT22;794;48.592;9.634;2023-03-08T03:28:44;3.40;1.00
1602;DHT22;794;48.592;9.634;2023-03-08T03:31:13;3.40;1.00
1602;DHT22;794;48.592;9.634;2023-03-08T03:33:43;3.30;1.00
1602;DHT22;794;48.592;9.634;2023-03-08T03:36:11;3.40;1.00
1602;DHT22;794;48.592;9.634;2023-03-08T03:38:39;3.10;1.00
1602;DHT22;794;48.592;9.634;2023-03-08T03:41:08;3.40;1.00
1602;DHT22;794;48.592;9.634;2023-03-08T03:43:36;5.00;1.00
1602;DHT22;794;48.592;9.634;2023-03-08T03:46:05;3.00;1.00
1602;DHT22;794;48.592;9.634;2023-03-08T03:48:33;3.00;1.00
1602;DHT22;794;48.592;9.634;2023-03-08T03:51:04;3.20;1.00
1602;DHT22;794;48.592;9.634;2023-03-08T03:53:33;3.40;1.00
1602;DHT22;794;48.592;9.634;2023-03-08T03:56:02;3.60;1.00
1602;DHT22;794;48.592;9.634;2023-03-08T03:58:29;3.20;1.00
1602;DHT22;794;48.592;9.634;2023-03-08T04:00:57;4.60;1.00
1602;DHT22;794;48.592;9.634;2023-03-08T04:03:24;3.40;1.00
1602;DHT22;794;48.592;9.634;2023-03-08T04:05:52;3.30;1.00
1602;DHT22;794;48.592;9.634;2023-03-08T04:08:20;3.50;1.00
1602;DHT22;794;48.592;9.634;2023-03-08T04:10:47;2.90;1.00
1602;DHT22;794;48.592;9.634;2023-03-08T04:13:14;5.30;1.00
1602;DHT22;794;48.592;9.634;2023-03-08T04:15:42;4.80;1.00
1602;DHT22;794;48.592;9.634;2023-03-08T04:18:09;4.30;1.00
1602;DHT22;794;48.592;9.634;2023-03-08T04:20:36;3.60;1.00
1602;DHT22;794;48.592;9.634;2023-03-08T04:23:03;4.50;1.00
1602;DHT22;794;48.592;9.634;2023-03-08T04:25:32;3.10;1.00
1602;DHT22;794;48.592;9.634;2023-03-08T04:27:59;2.90;1.00
1602;DHT22;794;48.592;9.634;2023-03-08T04:30:26;3.30;1.00
1602;DHT22;794;48.592;9.634;2023-03-08T04:32:54;3.00;1.00
1602;DHT22;794;48.592;9.634;2023-03-08T04:35:21;2.80;1.00
1602;DHT22;794;48.592;9.634;2023-03-08T04:37:48;2.90;1.00
1602;DHT22;794;48.592;9.634;2023-03-08T04:40:16;2.60;1.00
1602;DHT22;794;48.592;9.634;2023-03-08T04:42:44;2.90;1.00
1602;DHT22;794;48.592;9.634;2023-03-08T04:45:12;2.60;1.00
1602;DHT22;794;48.592;9.634;2023-03-08T04:47:40;3.20;1.00
1602;DHT22;794;48.592;9.634;2023-03-08T04:50:08;4.40;1.00
1602;DHT22;794;48.592;9.634;2023-03-08T04:52:35;3.30;1.00
1602;DHT22;794;48.592;9.634;2023-03-08T04:55:03;2.80;1.00
1602;DHT22;794;48.592;9.634;2023-03-08T04:57:30;3.20;1.00
1602;DHT22;794;48.592;9.634;2023-03-08T04:59:58;3.00;1.00
1602;DHT22;794;48.592;9.634;2023-03-08T05:02:26;3.10;1.00
1602;DHT22;794;48.592;9.634;2023-03-08T05:04:53;4.90;1.00
1602;DHT22;794;48.592;9.634;2023-03-08T05:07:20;3.20;1.00
1602;DHT22;794;48.592;9.634;2023-03-08T05:09:47;3.20;1.00
1602;DHT22;794;48.592;9.634;2023-03-08T05:12:14;3.80;1.00
1602;DHT22;794;48.592;9.634;2023-03-08T05:14:42;3.20;1.00
1602;DHT22;794;48.592;9.634;2023-03-08T05:17:10;3.40;1.00
1602;DHT22;794;48.592;9.634;2023-03-08T05:19:37;3.10;1.00
1602;DHT22;794;48.592;9.634;2023-03-08T05:22:04;3.20;1.00
1602;DHT22;794;48.592;9.634;2023-03-08T05:24:31;3.20;1.00
1602;DHT22;794;48.592;9.634;2023-03-08T05:26:58;3.10;1.00
1602;DHT22;794;48.592;9.634;2023-03-08T05:29:25;3.00;1.00
1602;DHT22;794;48.592;9.634;2023-03-08T05:31:52;3.60;1.00
1602;DHT22;794;48.592;9.634;2023-03-08T05:34:21;3.40;1.00
1602;DHT22;794;48.592;9.634;2023-03-08T05:36:48;3.40;1.00
1602;DHT22;794;48.592;9.634;2023-03-08T05:39:15;4.10;1.00
1602;DHT22;794;48.592;9.634;2023-03-08T05:41:42;3.20;1.00
1602;DHT22;794;48.592;9.634;2023-03-08T05:44:09;3.20;1.00
1602;DHT22;794;48.592;9.634;2023-03-08T05:46:36;4.10;1.00
1602;DHT22;794;48.592;9.634;2023-03-08T05:49:03;3.70;1.00
1602;DHT22;794;48.592;9.634;2023-03-08T05:51:32;3.30;1.00
1602;DHT22;794;48.592;9.634;2023-03-08T05:53:59;3.30;1.00
1602;DHT22;794;48.592;9.634;2023-03-08T05:56:26;3.60;1.00
1602;DHT22;794;48.592;9.634;2023-03-08T05:58:53;3.70;1.00
1602;DHT22;794;48.592;9.634;2023-03-08T06:01:21;4.60;1.00
1602;DHT22;794;48.592;9.634;2023-03-08T06:03:50;3.90;1.00
1602;DHT22;794;48.592;9.634;2023-03-08T06:06:19;3.30;1.00
1602;DHT22;794;48.592;9.634;2023-03-08T06:08:48;4.20;1.00
1602;DHT22;794;48.592;9.634;2023-03-08T06:11:16;3.60;1.00
1602;DHT22;794;48.592;9.634;2023-03-08T06:13:44;3.60;1.00
1602;DHT22;794;48.592;9.634;2023-03-08T06:16:11;3.60;1.00
1602;DHT22;794;48.592;9.634;2023-03-08T06:18:39;3.70;1.00
1602;DHT22;794;48.592;9.634;2023-03-08T06:21:08;5.20;1.00
1602;DHT22;794;48.592;9.634;2023-03-08T06:23:35;3.90;1.00
1602;DHT22;794;48.592;9.634;2023-03-08T06:26:04;5.50;1.00
1602;DHT22;794;48.592;9.634;2023-03-08T06:28:32;5.40;1.00
1602;DHT22;794;48.592;9.634;2023-03-08T06:30:59;3.80;1.00
1602;DHT22;794;48.592;9.634;2023-03-08T06:33:28;4.70;1.00
1602;DHT22;794;48.592;9.634;2023-03-08T06:35:56;3.90;1.00
1602;DHT22;794;48.592;9.634;2023-03-08T06:38:24;3.50;1.00
1602;DHT22;794;48.592;9.634;2023-03-08T06:40:57;3.90;1.00
1602;DHT22;794;48.592;9.634;2023-03-08T06:43:25;5.90;1.00
1602;DHT22;794;48.592;9.634;2023-03-08T06:45:53;3.70;1.00
1602;DHT22;794;48.592;9.634;2023-03-08T06:48:20;4.20;1.00
1602;DHT22;794;48.592;9.634;2023-03-08T06:50:47;3.80;1.00
1602;DHT22;794;48.592;9.634;2023-03-08T06:53:15;4.00;1.00
1602;DHT22;794;48.592;9.634;2023-03-08T06:55:42;4.30;1.00
1602;DHT22;794;48.592;9.634;2023-03-08T06:58:09;4.20;1.00
1602;DHT22;794;48.592;9.634;2023-03-08T07:00:37;5.10;1.00
1602;DHT22;794;48.592;9.634;2023-03-08T07:03:05;4.20;1.00
1602;DHT22;794;48.592;9.634;2023-03-08T07:05:33;4.50;1.00
1602;DHT22;794;48.592;9.634;2023-03-08T07:08:00;6.70;1.00
1602;DHT22;794;48.592;9.634;2023-03-08T07:10:27;4.30;1.00
1602;DHT22;794;48.592;9.634;2023-03-08T07:12:54;4.70;1.00
1602;DHT22;794;48.592;9.634;2023-03-08T07:15:22;4.10;1.00
1602;DHT22;794;48.592;9.634;2023-03-08T07:17:52;4.30;1.00
1602;DHT22;794;48.592;9.634;2023-03-08T07:20:22;4.50;1.00
1602;DHT22;794;48.592;9.634;2023-03-08T07:22:50;4.70;1.00
1602;DHT22;794;48.592;9.634;2023-03-08T07:25:19;4.80;1.00
1602;DHT22;794;48.592;9.634;2023-03-08T07:27:46;4.80;1.00
1602;DHT22;794;48.592;9.634;2023-03-08T07:30:15;5.10;1.00
1602;DHT22;794;48.592;9.634;2023-03-08T07:32:42;5.40;1.00
1602;DHT22;794;48.592;9.634;2023-03-08T07:35:12;5.40;1.00
1602;DHT22;794;48.592;9.634;2023-03-08T07:37:42;5.10;1.00
1602;DHT22;794;48.592;9.634;2023-03-08T07:40:11;5.10;1.00
1602;DHT22;794;48.592;9.634;2023-03-08T07:42:38;5.00;1.00
1602;DHT22;794;48.592;9.634;2023-03-08T07:45:07;5.00;1.00
1602;DHT22;794;48.592;9.634;2023-03-08T07:47:34;5.20;1.00
1602;DHT22;794;48.592;9.634;2023-03-08T07:50:01;5.20;1.00
1602;DHT22;794;48.592;9.634;2023-03-08T07:52:30;5.40;1.00
1602;DHT22;794;48.592;9.634;2023-03-08T07:54:57;5.60;1.00
1602;DHT22;794;48.592;9.634;2023-03-08T07:57:27;5.70;1.00
1602;DHT22;794;48.592;9.634;2023-03-08T07:59:54;5.70;1.00
1602;DHT22;794;48.592;9.634;2023-03-08T08:02:21;5.50;1.00
1602;DHT22;794;48.592;9.634;2023-03-08T08:04:49;5.60;1.00
1602;DHT22;794;48.592;9.634;2023-03-08T08:07:16;5.50;1.00
1602;DHT22;794;48.592;9.634;2023-03-08T08:09:45;5.90;1.00
1602;DHT22;794;48.592;9.634;2023-03-08T08:12:12;5.50;1.00
1602;DHT22;794;48.592;9.634;2023-03-08T08:14:39;5.50;1.00
1602;DHT22;794;48.592;9.634;2023-03-08T08:17:07;5.60;1.00
1602;DHT22;794;48.592;9.634;2023-03-08T08:19:34;5.60;1.00
1602;DHT22;794;48.592;9.634;2023-03-08T08:22:01;5.60;1.00
1602;DHT22;794;48.592;9.634;2023-03-08T08:24:29;5.80;1.00
1602;DHT22;794;48.592;9.634;2023-03-08T08:26:58;5.80;1.00
1602;DHT22;794;48.592;9.634;2023-03-08T08:29:25;5.90;1.00
1602;DHT22;794;48.592;9.634;2023-03-08T08:31:52;5.70;1.00
1602;DHT22;794;48.592;9.634;2023-03-08T08:34:20;5.90;1.00
1602;DHT22;794;48.592;9.634;2023-03-08T08:36:47;6.20;1.00
1602;DHT22;794;48.592;9.634;2023-03-08T08:39:14;6.00;1.00
1602;DHT22;794;48.592;9.634;2023-03-08T08:41:41;5.60;1.00
1602;DHT22;794;48.592;9.634;2023-03-08T08:44:10;6.10;1.00
1602;DHT22;794;48.592;9.634;2023-03-08T08:46:37;6.00;1.00
1602;DHT22;794;48.592;9.634;2023-03-08T08:49:04;5.60;1.00
1602;DHT22;794;48.592;9.634;2023-03-08T08:51:31;5.70;1.00
1602;DHT22;794;48.592;9.634;2023-03-08T08:53:58;5.50;1.00
1602;DHT22;794;48.592;9.634;2023-03-08T08:56:26;6.00;1.00
1602;DHT22;794;48.592;9.634;2023-03-08T08:58:54;5.90;1.00
1602;DHT22;794;48.592;9.634;2023-03-08T09:01:24;5.90;1.00
1602;DHT22;794;48.592;9.634;2023-03-08T09:03:52;6.20;1.00
1602;DHT22;794;48.592;9.634;2023-03-08T09:06:50;6.30;1.00
1602;DHT22;794;48.592;9.634;2023-03-08T09:09:18;6.30;1.00
1602;DHT22;794;48.592;9.634;2023-03-08T09:11:45;6.80;1.00
1602;DHT22;794;48.592;9.634;2023-03-08T09:14:13;7.50;1.00
1602;DHT22;794;48.592;9.634;2023-03-08T09:16:42;6.90;1.00
1602;DHT22;794;48.592;9.634;2023-03-08T09:19:09;7.20;1.00
1602;DHT22;794;48.592;9.634;2023-03-08T09:21:37;7.50;1.00
1602;DHT22;794;48.592;9.634;2023-03-08T09:24:05;7.30;1.00
1602;DHT22;794;48.592;9.634;2023-03-08T09:26:35;7.60;1.00
1602;DHT22;794;48.592;9.634;2023-03-08T09:29:02;7.80;1.00
1602;DHT22;794;48.592;9.634;2023-03-08T09:31:34;7.70;1.00
1602;DHT22;794;48.592;9.634;2023-03-08T09:34:04;8.10;1.00
1602;DHT22;794;48.592;9.634;2023-03-08T09:36:33;8.10;1.00
1602;DHT22;794;48.592;9.634;2023-03-08T09:39:01;8.00;1.00
1602;DHT22;794;48.592;9.634;2023-03-08T09:41:53;8.10;1.00
1602;DHT22;794;48.592;9.634;2023-03-08T09:47:29;8.00;1.00
1602;DHT22;794;48.592;9.634;2023-03-08T09:50:06;7.80;1.00
1602;DHT22;794;48.592;9.634;2023-03-08T09:52:37;7.90;1.00
1602;DHT22;794;48.592;9.634;2023-03-08T09:55:19;8.50;1.00
1602;DHT22;794;48.592;9.634;2023-03-08T09:57:53;7.80;1.00
1602;DHT22;794;48.592;9.634;2023-03-08T10:00:25;8.10;1.00
1602;DHT22;794;48.592;9.634;2023-03-08T10:03:03;7.70;1.00
1602;DHT22;794;48.592;9.634;2023-03-08T10:05:37;7.80;1.00
1602;DHT22;794;48.592;9.634;2023-03-08T10:08:12;7.80;1.00
1602;DHT22;794;48.592;9.634;2023-03-08T10:10:46;8.10;1.00
1602;DHT22;794;48.592;9.634;2023-03-08T10:13:32;8.50;1.00
1602;DHT22;794;48.592;9.634;2023-03-08T10:16:08;8.40;1.00
1602;DHT22;794;48.592;9.634;2023-03-08T10:18:42;7.80;1.00
1602;DHT22;794;48.592;9.634;2023-03-08T10:21:14;8.00;1.00
1602;DHT22;794;48.592;9.634;2023-03-08T10:23:45;7.40;1.00
1602;DHT22;794;48.592;9.634;2023-03-08T10:26:14;8.50;1.00
1602;DHT22;794;48.592;9.634;2023-03-08T10:28:42;8.40;1.00
1602;DHT22;794;48.592;9.634;2023-03-08T10:31:20;8.60;1.00
1602;DHT22;794;48.592;9.634;2023-03-08T10:33:49;8.50;1.00
1602;DHT22;794;48.592;9.634;2023-03-08T10:36:21;8.40;1.00
1602;DHT22;794;48.592;9.634;2023-03-08T10:39:03;8.30;1.00
1602;DHT22;794;48.592;9.634;2023-03-08T10:41:36;8.60;1.00
1602;DHT22;794;48.592;9.634;2023-03-08T10:44:09;8.40;1.00
1602;DHT22;794;48.592;9.634;2023-03-08T10:46:46;8.80;1.00
1602;DHT22;794;48.592;9.634;2023-03-08T10:49:16;9.10;1.00
1602;DHT22;794;48.592;9.634;2023-03-08T10:51:56;9.00;1.00
1602;DHT22;794;48.592;9.634;2023-03-08T10:54:24;9.00;1.00
1602;DHT22;794;48.592;9.634;2023-03-08T10:56:55;9.40;1.00
1602;DHT22;794;48.592;9.634;2023-03-08T10:59:28;10.00;1.00
1602;DHT22;794;48.592;9.634;2023-03-08T11:01:59;9.90;1.00
1602;DHT22;794;48.592;9.634;2023-03-08T11:04:30;10.10;1.00
1602;DHT22;794;48.592;9.634;2023-03-08T11:07:09;10.00;1.00
1602;DHT22;794;48.592;9.634;2023-03-08T11:09:37;10.40;1.00
1602;DHT22;794;48.592;9.634;2023-03-08T11:12:04;10.30;1.00
1602;DHT22;794;48.592;9.634;2023-03-08T11:14:32;10.30;1.00
1602;DHT22;794;48.592;9.634;2023-03-08T11:17:14;10.30;1.00
1602;DHT22;794;48.592;9.634;2023-03-08T11:19:54;10.20;1.00
1602;DHT22;794;48.592;9.634;2023-03-08T11:22:38;10.60;1.00
1602;DHT22;794;48.592;9.634;2023-03-08T11:25:30;10.60;1.00
1602;DHT22;794;48.592;9.634;2023-03-08T11:28:13;10.80;1.00
1602;DHT22;794;48.592;9.634;2023-03-08T11:30:53;10.90;1.00
1602;DHT22;794;48.592;9.634;2023-03-08T11:36:28;11.60;1.00
1602;DHT22;794;48.592;9.634;2023-03-08T11:39:04;11.30;1.00
1602;DHT22;794;48.592;9.634;2023-03-08T11:41:41;11.60;1.00
1602;DHT22;794;48.592;9.634;2023-03-08T11:44:20;11.80;1.00
1602;DHT22;794;48.592;9.634;2023-03-08T11:47:26;11.30;1.00
1602;DHT22;794;48.592;9.634;2023-03-08T11:50:02;11.80;1.00
1602;DHT22;794;48.592;9.634;2023-03-08T11:52:37;12.10;1.00
1602;DHT22;794;48.592;9.634;2023-03-08T11:55:23;12.30;1.00
1602;DHT22;794;48.592;9.634;2023-03-08T11:57:59;12.60;1.00
1602;DHT22;794;48.592;9.634;2023-03-08T12:00:29;12.80;1.00
1602;DHT22;794;48.592;9.634;2023-03-08T12:03:02;12.90;1.00
1602;DHT22;794;48.592;9.634;2023-03-08T12:05:35;12.60;1.00
1602;DHT22;794;48.592;9.634;2023-03-08T12:08:12;12.60;1.00
1602;DHT22;794;48.592;9.634;2023-03-08T12:10:50;11.70;1.00
1602;DHT22;794;48.592;9.634;2023-03-08T12:13:27;12.60;1.00
1602;DHT22;794;48.592;9.634;2023-03-08T12:16:05;12.40;1.00
1602;DHT22;794;48.592;9.634;2023-03-08T12:18:43;12.10;1.00
1602;DHT22;794;48.592;9.634;2023-03-08T12:21:19;12.50;1.00
1602;DHT22;794;48.592;9.634;2023-03-08T12:23:54;12.40;1.00
1602;DHT22;794;48.592;9.634;2023-03-08T12:26:27;12.30;1.00
1602;DHT22;794;48.592;9.634;2023-03-08T12:29:01;12.30;1.00
1602;DHT22;794;48.592;9.634;2023-03-08T12:31:32;12.40;1.00
1602;DHT22;794;48.592;9.634;2023-03-08T12:34:11;12.20;1.00
1602;DHT22;794;48.592;9.634;2023-03-08T12:36:41;12.10;1.00
1602;DHT22;794;48.592;9.634;2023-03-08T12:39:21;12.30;1.00
1602;DHT22;794;48.592;9.634;2023-03-08T12:42:13;11.90;1.00
1602;DHT22;794;48.592;9.634;2023-03-08T12:44:41;11.90;1.00
1602;DHT22;794;48.592;9.634;2023-03-08T12:47:20;12.40;1.00
1602;DHT22;794;48.592;9.634;2023-03-08T12:49:52;12.30;1.00
1602;DHT22;794;48.592;9.634;2023-03-08T12:52:28;12.40;1.00
1602;DHT22;794;48.592;9.634;2023-03-08T12:54:58;12.90;1.00
1602;DHT22;794;48.592;9.634;2023-03-08T12:57:30;12.80;1.00
1602;DHT22;794;48.592;9.634;2023-03-08T13:00:02;13.10;1.00
1602;DHT22;794;48.592;9.634;2023-03-08T13:02:33;13.10;1.00
1602;DHT22;794;48.592;9.634;2023-03-08T13:05:18;13.00;1.00
1602;DHT22;794;48.592;9.634;2023-03-08T13:10:58;13.60;1.00
1602;DHT22;794;48.592;9.634;2023-03-08T13:13:36;13.80;1.00
1602;DHT22;794;48.592;9.634;2023-03-08T13:16:19;14.00;1.00
1602;DHT22;794;48.592;9.634;2023-03-08T13:18:48;13.90;1.00
1602;DHT22;794;48.592;9.634;2023-03-08T13:21:25;13.70;1.00
1602;DHT22;794;48.592;9.634;2023-03-08T13:23:56;13.20;1.00
1602;DHT22;794;48.592;9.634;2023-03-08T13:26:41;13.40;1.00
1602;DHT22;794;48.592;9.634;2023-03-08T13:29:14;13.20;1.00
1602;DHT22;794;48.592;9.634;2023-03-08T13:31:43;13.20;1.00
1602;DHT22;794;48.592;9.634;2023-03-08T13:34:26;13.30;1.00
1602;DHT22;794;48.592;9.634;2023-03-08T13:36:54;12.70;1.00
1602;DHT22;794;48.592;9.634;2023-03-08T13:39:23;12.80;1.00
1602;DHT22;794;48.592;9.634;2023-03-08T13:41:50;13.00;1.00
1602;DHT22;794;48.592;9.634;2023-03-08T13:44:22;12.80;1.00
1602;DHT22;794;48.592;9.634;2023-03-08T13:46:52;13.00;1.00
1602;DHT22;794;48.592;9.634;2023-03-08T13:49:23;13.10;1.00
1602;DHT22;794;48.592;9.634;2023-03-08T13:51:52;13.00;1.00
1602;DHT22;794;48.592;9.634;2023-03-08T13:54:24;12.60;1.00
1602;DHT22;794;48.592;9.634;2023-03-08T13:56:54;12.90;1.00
1602;DHT22;794;48.592;9.634;2023-03-08T13:59:23;12.50;1.00
1602;DHT22;794;48.592;9.634;2023-03-08T14:01:51;12.70;1.00
1602;DHT22;794;48.592;9.634;2023-03-08T14:04:21;12.90;1.00
1602;DHT22;794;48.592;9.634;2023-03-08T14:06:50;12.80;1.00
1602;DHT22;794;48.592;9.634;2023-03-08T14:09:18;12.60;1.00
1602;DHT22;794;48.592;9.634;2023-03-08T14:11:52;12.80;1.00
1602;DHT22;794;48.592;9.634;2023-03-08T14:14:28;12.80;1.00
1602;DHT22;794;48.592;9.634;2023-03-08T14:16:57;12.40;1.00
1602;DHT22;794;48.592;9.634;2023-03-08T14:19:26;13.00;1.00
1602;DHT22;794;48.592;9.634;2023-03-08T14:21:55;13.20;1.00
1602;DHT22;794;48.592;9.634;2023-03-08T14:24:26;13.00;1.00
1602;DHT22;794;48.592;9.634;2023-03-08T14:26:56;13.00;1.00
1602;DHT22;794;48.592;9.634;2023-03-08T14:29:27;12.80;1.00
1602;DHT22;794;48.592;9.634;2023-03-08T14:31:59;12.80;1.00
1602;DHT22;794;48.592;9.634;2023-03-08T14:34:28;12.40;1.00
1602;DHT22;794;48.592;9.634;2023-03-08T14:37:00;12.30;1.00
1602;DHT22;794;48.592;9.634;2023-03-08T14:39:29;12.30;1.00
1602;DHT22;794;48.592;9.634;2023-03-08T14:42:06;11.90;1.00
1602;DHT22;794;48.592;9.634;2023-03-08T14:44:35;12.20;1.00
1602;DHT22;794;48.592;9.634;2023-03-08T14:47:08;12.00;1.00
1602;DHT22;794;48.592;9.634;2023-03-08T14:49:35;12.20;1.00
1602;DHT22;794;48.592;9.634;2023-03-08T14:52:02;12.10;1.00
1602;DHT22;794;48.592;9.634;2023-03-08T14:54:32;11.70;1.00
1602;DHT22;794;48.592;9.634;2023-03-08T14:57:15;12.20;1.00
1602;DHT22;794;48.592;9.634;2023-03-08T14:59:44;12.00;1.00
1602;DHT22;794;48.592;9.634;2023-03-08T15:02:13;12.50;1.00
1602;DHT22;794;48.592;9.634;2023-03-08T15:04:41;12.40;1.00
1602;DHT22;794;48.592;9.634;2023-03-08T15:07:15;12.10;1.00
1602;DHT22;794;48.592;9.634;2023-03-08T15:09:44;12.30;1.00
1602;DHT22;794;48.592;9.634;2023-03-08T15:12:11;11.90;1.00
1602;DHT22;794;48.592;9.634;2023-03-08T15:14:39;12.30;1.00
1602;DHT22;794;48.592;9.634;2023-03-08T15:17:07;12.50;1.00
1602;DHT22;794;48.592;9.634;2023-03-08T15:19:34;12.20;1.00
1602;DHT22;794;48.592;9.634;2023-03-08T15:22:03;12.10;1.00
1602;DHT22;794;48.592;9.634;2023-03-08T15:24:31;12.50;1.00
1602;DHT22;794;48.592;9.634;2023-03-08T15:26:58;12.20;1.00
1602;DHT22;794;48.592;9.634;2023-03-08T15:29:27;12.00;1.00
1602;DHT22;794;48.592;9.634;2023-03-08T15:31:56;12.20;1.00
1602;DHT22;794;48.592;9.634;2023-03-08T15:34:25;12.40;1.00
1602;DHT22;794;48.592;9.634;2023-03-08T15:36:53;12.10;1.00
1602;DHT22;794;48.592;9.634;2023-03-08T15:39:20;11.80;1.00
1602;DHT22;794;48.592;9.634;2023-03-08T15:41:48;11.90;1.00
1602;DHT22;794;48.592;9.634;2023-03-08T15:44:15;12.20;1.00
1602;DHT22;794;48.592;9.634;2023-03-08T15:46:43;11.80;1.00
1602;DHT22;794;48.592;9.634;2023-03-08T15:49:10;12.10;1.00
1602;DHT22;794;48.592;9.634;2023-03-08T15:51:38;12.00;1.00
1602;DHT22;794;48.592;9.634;2023-03-08T15:54:06;11.90;1.00
1602;DHT22;794;48.592;9.634;2023-03-08T15:56:33;12.10;1.00
1602;DHT22;794;48.592;9.634;2023-03-08T15:59:00;11.80;1.00
1602;DHT22;794;48.592;9.634;2023-03-08T16:01:28;11.90;1.00
1602;DHT22;794;48.592;9.634;2023-03-08T16:03:56;12.00;1.00
1602;DHT22;794;48.592;9.634;2023-03-08T16:06:23;11.90;1.00
1602;DHT22;794;48.592;9.634;2023-03-08T16:08:52;11.80;1.00
1602;DHT22;794;48.592;9.634;2023-03-08T16:11:19;12.10;1.00
1602;DHT22;794;48.592;9.634;2023-03-08T16:13:49;12.30;1.00
1602;DHT22;794;48.592;9.634;2023-03-08T16:16:17;12.40;1.00
1602;DHT22;794;48.592;9.634;2023-03-08T16:18:44;11.90;1.00
1602;DHT22;794;48.592;9.634;2023-03-08T16:21:11;12.10;1.00
1602;DHT22;794;48.592;9.634;2023-03-08T16:23:38;12.20;1.00
1602;DHT22;794;48.592;9.634;2023-03-08T16:26:10;11.80;1.00
1602;DHT22;794;48.592;9.634;2023-03-08T16:28:37;12.10;1.00
1602;DHT22;794;48.592;9.634;2023-03-08T16:31:05;11.70;1.00
1602;DHT22;794;48.592;9.634;2023-03-08T16:33:34;12.10;1.00
1602;DHT22;794;48.592;9.634;2023-03-08T16:36:02;11.90;1.00
1602;DHT22;794;48.592;9.634;2023-03-08T16:38:29;12.20;1.00
1602;DHT22;794;48.592;9.634;2023-03-08T16:40:59;11.70;1.00
1602;DHT22;794;48.592;9.634;2023-03-08T16:43:29;11.90;1.00
1602;DHT22;794;48.592;9.634;2023-03-08T16:45:59;11.50;1.00
1602;DHT22;794;48.592;9.634;2023-03-08T16:48:27;12.10;1.00
1602;DHT22;794;48.592;9.634;2023-03-08T16:50:57;11.80;1.00
1602;DHT22;794;48.592;9.634;2023-03-08T16:53:25;11.30;1.00
1602;DHT22;794;48.592;9.634;2023-03-08T16:55:54;11.50;1.00
1602;DHT22;794;48.592;9.634;2023-03-08T16:58:21;10.00;1.00
1602;DHT22;794;48.592;9.634;2023-03-08T17:00:50;11.30;1.00
1602;DHT22;794;48.592;9.634;2023-03-08T17:03:17;11.30;1.00
1602;DHT22;794;48.592;9.634;2023-03-08T17:05:44;11.30;1.00
1602;DHT22;794;48.592;9.634;2023-03-08T17:08:12;11.50;1.00
1602;DHT22;794;48.592;9.634;2023-03-08T17:10:41;11.00;1.00
1602;DHT22;794;48.592;9.634;2023-03-08T17:13:08;10.70;1.00